Rochester/St. Mary\'s Hospita, MN

10:17 AM CST on December 09, 2019 (GMT -0600)
Rochester/St. Mary\'s Hospita

Weather History for K9MN - October, 2019

Change the Weather History Date:

Friday, October 11, 2019

  Actual Average (KRST) Record (KRST)
Temperature  
Mean Temperature 40 °F -  
Max Temperature 42 °F 60 °F 84 °F (2015)
Min Temperature 33 °F 38 °F 17 °F (1919)
Degree Days  
Heating Degree Days 26    
Moisture  
Dew Point 29 °F    
Average Humidity 76    
Maximum Humidity 100    
Minimum Humidity 57    
Precipitation  
Precipitation 0.11 in - - ()
Sea Level Pressure  
Sea Level Pressure 29.79 in    
Wind  
Wind Speed 15 mph (WSW)    
Max Wind Speed 29 mph    
Max Gust Speed 43 mph    
Visibility 9 miles    
Events      
Averages and records for this station are not official NWS values.
T = Trace of Precipitation, MM = Missing Value Source: NWS Daily Summary

Daily Weather History Graph

Daily Weather History Graph

Search for Another Location

Airport or City:

Astronomy

Oct. 11, 2019 Rise Set
Actual Time 7:19 AM CDT 6:33 PM CDT
Civil Twilight 6:50 AM CDT 7:02 PM CDT
Nautical Twilight 6:16 AM CDT 7:35 PM CDT
Astronomical Twilight 5:43 AM CDT 8:08 PM CDT
Moon 6:09 PM CDT (10/11) 4:52 AM CDT (10/11)
Length of Visible Light 12h 11m
Length of Day
11h 13m
Waxing Gibbous, 96% of the Moon is Illuminated
Oct 11
Waxing Gibbous
Oct 13
Full
Oct 21
Last Quarter
Oct 27
New
Nov 4
First Quarter

Hourly Weather History & Observations

Time (CDT) Temp. Windchill Dew Point Humidity Pressure Visibility Wind Dir Wind Speed Gust Speed Precip Events Conditions
12:15 AM 46.4 °F 41.1 °F 46.6 °F 100% 29.72 in 2.0 mi West 11.5 mph 28.8 mph 0.02 in   Overcast
12:36 AM 43.7 °F 36.6 °F 43.9 °F 100% 29.74 in 1.2 mi West 15.0 mph 24.2 mph 0.10 in   Overcast
12:55 AM 42.8 °F 36.2 °F 43.0 °F 100% 29.72 in 7.0 mi West 12.7 mph 23.0 mph 0.11 in   Overcast
12:56 AM 42.8 °F 36.6 °F 43.0 °F 100% 29.72 in 7.0 mi West 11.5 mph 23.0 mph 0.11 in   Overcast
1:15 AM - - - N/A% 29.71 in 4.0 mi WSW 11.5 mph 23.0 mph N/A   Overcast
1:35 AM 40.1 °F 33.2 °F 40.3 °F 100% 29.72 in 4.0 mi West 11.5 mph 25.3 mph N/A   Overcast
1:55 AM 40.5 °F 34.1 °F 40.6 °F 100% 29.73 in 2.5 mi WSW 10.4 mph 17.3 mph N/A   Overcast
1:56 AM 40.5 °F 32.8 °F 40.6 °F 100% 29.73 in 2.5 mi WSW 13.8 mph 20.7 mph N/A   Overcast
2:15 AM 39.2 °F 31.6 °F 39.4 °F 100% 29.72 in 7.0 mi WSW 12.7 mph 18.4 mph N/A   Overcast
2:16 AM 39.2 °F 31.2 °F 39.4 °F 100% 29.72 in 7.0 mi WSW 13.8 mph 18.4 mph N/A   Overcast
2:35 AM 39.2 °F 32.0 °F 39.2 °F 100% 29.71 in 10.0 mi West 11.5 mph 19.6 mph N/A   Overcast
2:55 AM 39.0 °F 31.0 °F 38.5 °F 98% 29.72 in 10.0 mi West 13.8 mph 19.6 mph N/A   Overcast
3:15 AM 38.5 °F 30.7 °F 37.9 °F 98% 29.72 in 10.0 mi West 12.7 mph 25.3 mph N/A   Overcast
3:16 AM 38.5 °F 30.7 °F 37.9 °F 98% 29.72 in 10.0 mi West 12.7 mph 25.3 mph N/A   Overcast
3:35 AM 37.8 °F 29.4 °F 36.9 °F 97% 29.72 in 10.0 mi West 13.8 mph 24.2 mph N/A   Overcast
3:36 AM 37.8 °F 29.4 °F 36.9 °F 97% 29.71 in 10.0 mi West 13.8 mph 24.2 mph N/A   Overcast
3:55 AM 37.8 °F 31.3 °F 37.0 °F 97% 29.71 in 10.0 mi WSW 9.2 mph 23.0 mph N/A   Overcast
4:15 AM 37.8 °F 29.4 °F 37.0 °F 97% 29.70 in 10.0 mi WSW 13.8 mph 20.7 mph N/A   Overcast
4:35 AM 37.4 °F 27.8 °F 36.5 °F 97% 29.69 in 10.0 mi WSW 17.3 mph 24.2 mph N/A   Overcast
4:36 AM 37.4 °F 27.8 °F 36.5 °F 97% 29.70 in 10.0 mi WSW 17.3 mph 24.2 mph N/A   Overcast
4:55 AM 37.4 °F 27.5 °F 35.6 °F 93% 29.69 in 10.0 mi West 18.4 mph 26.5 mph N/A   Overcast
4:56 AM 37.4 °F 28.5 °F 35.4 °F 93% 29.69 in 10.0 mi West 15.0 mph 26.5 mph N/A   Overcast
5:15 AM 37.4 °F 29.3 °F 34.9 °F 91% 29.69 in 10.0 mi WSW 12.7 mph 29.9 mph N/A   Overcast
5:35 AM 37.0 °F 29.3 °F 34.3 °F 90% 29.68 in 10.0 mi WSW 11.5 mph 29.9 mph N/A   Overcast
5:55 AM 36.7 °F 29.9 °F 34.9 °F 93% 29.70 in 5.0 mi West 9.2 mph 26.5 mph N/A   Overcast
5:56 AM 36.7 °F 29.4 °F 34.9 °F 93% 29.70 in 5.0 mi West 10.4 mph 26.5 mph N/A   Overcast
6:15 AM 36.7 °F 28.9 °F 34.0 °F 90% 29.72 in 10.0 mi West 11.5 mph 16.1 mph N/A   Overcast
6:16 AM 36.5 °F 29.7 °F 33.8 °F 90% 29.72 in 10.0 mi West 9.2 mph 16.1 mph N/A   Overcast
6:35 AM 36.5 °F 29.2 °F 33.1 °F 87% 29.72 in 10.0 mi WSW 10.4 mph 23.0 mph N/A   Overcast
6:55 AM 36.5 °F 28.2 °F 33.1 °F 87% 29.73 in 10.0 mi WSW 12.7 mph 20.7 mph N/A   Overcast
7:15 AM 36.1 °F 27.3 °F 32.0 °F 85% 29.73 in 10.0 mi WSW 13.8 mph 25.3 mph N/A   Overcast
7:16 AM 36.1 °F 28.2 °F 32.0 °F 85% 29.73 in 10.0 mi WSW 11.5 mph 25.3 mph N/A   Overcast
7:35 AM 36.0 °F 28.5 °F 32.0 °F 86% 29.72 in 10.0 mi WSW 10.4 mph 19.6 mph N/A   Mostly Cloudy
7:36 AM 36.1 °F 29.3 °F 32.0 °F 85% 29.72 in 10.0 mi West 9.2 mph - N/A   Mostly Cloudy
7:55 AM 35.6 °F 27.1 °F 32.0 °F 87% 29.75 in 4.0 mi WSW 12.7 mph 24.2 mph N/A   Overcast
7:56 AM 35.6 °F 26.6 °F 32.0 °F 87% 29.74 in 4.0 mi WSW 13.8 mph 24.2 mph N/A   Overcast
8:15 AM 35.1 °F 26.4 °F 32.5 °F 91% 29.74 in 10.0 mi WSW 12.7 mph 19.6 mph N/A   Overcast
8:35 AM 34.9 °F 25.7 °F 31.1 °F 86% 29.76 in 10.0 mi West 13.8 mph 27.6 mph N/A   Overcast
8:55 AM 35.2 °F 25.8 °F 30.7 °F 84% 29.79 in 10.0 mi West 15.0 mph 23.0 mph N/A   Overcast
8:56 AM 35.2 °F 25.0 °F 30.7 °F 84% 29.79 in 10.0 mi West 17.3 mph 23.0 mph N/A   Overcast
9:15 AM 35.6 °F 26.6 °F 30.0 °F 80% 29.80 in 10.0 mi WSW 13.8 mph 25.3 mph N/A   Overcast
9:16 AM 35.6 °F 28.0 °F 30.0 °F 80% 29.80 in 10.0 mi WSW 10.4 mph 25.3 mph N/A   Overcast
9:35 AM 35.6 °F 24.8 °F 29.1 °F 77% 29.79 in 10.0 mi WSW 19.6 mph 28.8 mph N/A   Overcast
9:55 AM 35.1 °F 23.8 °F 29.7 °F 81% 29.79 in 10.0 mi WSW 20.7 mph 29.9 mph N/A   Overcast
10:15 AM 35.6 °F 27.1 °F 27.5 °F 72% 29.82 in 10.0 mi West 12.7 mph 27.6 mph N/A   Overcast
10:16 AM 35.6 °F 26.2 °F 27.5 °F 72% 29.82 in 10.0 mi West 15.0 mph 27.6 mph N/A   Overcast
10:35 AM 36.0 °F 26.7 °F 26.8 °F 69% 29.80 in 10.0 mi WSW 15.0 mph 29.9 mph N/A   Overcast
10:36 AM 36.1 °F 26.9 °F 26.8 °F 69% 29.80 in 10.0 mi West 15.0 mph 29.9 mph N/A   Overcast
10:55 AM 36.0 °F 25.0 °F 27.3 °F 71% 29.78 in 10.0 mi WSW 20.7 mph 27.6 mph N/A   Overcast
11:15 AM 36.5 °F 26.7 °F 26.6 °F 67% 29.80 in 10.0 mi WSW 17.3 mph 26.5 mph N/A   Overcast
11:35 AM 36.7 °F 28.0 °F 26.4 °F 66% 29.82 in 10.0 mi West 13.8 mph 29.9 mph N/A   Overcast
11:36 AM 36.9 °F 28.2 °F 26.6 °F 66% 29.82 in 10.0 mi West 13.8 mph 29.9 mph N/A   Overcast
11:55 AM 36.9 °F 25.6 °F 25.9 °F 64% 29.80 in 10.0 mi WSW 23.0 mph 38.0 mph N/A   Overcast
11:56 AM 36.9 °F 25.9 °F 25.5 °F 64% 29.80 in 10.0 mi WSW 21.9 mph 38.0 mph N/A   Overcast
12:15 PM 36.9 °F 26.8 °F 26.2 °F 65% 29.80 in 10.0 mi WSW 18.4 mph 31.1 mph N/A   Overcast
12:35 PM 36.7 °F 26.3 °F 26.1 °F 65% 29.78 in 10.0 mi WSW 19.6 mph 27.6 mph N/A   Overcast
12:36 PM 36.7 °F 26.6 °F 26.1 °F 65% 29.78 in 10.0 mi WSW 18.4 mph 27.6 mph N/A   Overcast
12:55 PM 36.9 °F 26.8 °F 25.2 °F 63% 29.81 in 10.0 mi WSW 18.4 mph 31.1 mph N/A   Overcast
12:56 PM 36.9 °F 26.5 °F 25.3 °F 63% 29.81 in 10.0 mi WSW 19.6 mph 31.1 mph N/A   Overcast
1:15 PM 37.2 °F 27.3 °F 24.4 °F 60% 29.82 in 10.0 mi WSW 18.4 mph 34.5 mph N/A   Overcast
1:35 PM 37.4 °F 29.3 °F 25.7 °F 63% 29.89 in 10.0 mi West 12.7 mph 32.2 mph N/A   Overcast
1:55 PM 37.4 °F 27.5 °F 24.8 °F 60% 29.85 in 7.0 mi WSW 18.4 mph 38.0 mph N/A   Overcast
1:56 PM 37.4 °F 28.2 °F 25.0 °F 61% 29.86 in 7.0 mi WSW 16.1 mph 38.0 mph N/A   Overcast
2:15 PM 37.6 °F 28.4 °F 24.3 °F 59% 29.86 in 10.0 mi WSW 16.1 mph 33.4 mph N/A   Overcast
2:35 PM 37.6 °F 27.7 °F 24.4 °F 59% 29.85 in 10.0 mi WSW 18.4 mph 27.6 mph N/A   Overcast
2:55 PM 37.6 °F 25.4 °F 23.7 °F 57% 29.84 in 10.0 mi WSW 28.8 mph 39.1 mph N/A   Overcast
3:15 PM 37.4 °F 27.8 °F 23.9 °F 58% 29.85 in 10.0 mi WSW 17.3 mph 31.1 mph N/A   Overcast
3:16 PM 37.4 °F 27.5 °F 23.7 °F 58% 29.85 in 10.0 mi WSW 18.4 mph 31.1 mph N/A   Overcast
3:35 PM 37.4 °F 26.6 °F 24.3 °F 59% 29.85 in 10.0 mi WSW 21.9 mph 35.7 mph N/A   Overcast
3:55 PM 37.4 °F 28.2 °F 25.3 °F 62% 29.85 in 10.0 mi SW 16.1 mph 25.3 mph N/A   Overcast
4:15 PM 37.4 °F 26.1 °F 24.3 °F 59% 29.84 in 10.0 mi WSW 24.2 mph 34.5 mph N/A   Overcast
4:16 PM 37.2 °F 26.1 °F 24.1 °F 59% 29.85 in 10.0 mi WSW 23.0 mph 34.5 mph N/A   Overcast
4:35 PM 37.2 °F 25.9 °F 24.6 °F 60% 29.85 in 10.0 mi WSW 24.2 mph 36.8 mph N/A   Overcast
4:36 PM 37.2 °F 26.7 °F 24.6 °F 60% 29.85 in 10.0 mi SW 20.7 mph 36.8 mph N/A   Overcast
4:55 PM 36.9 °F 26.8 °F 24.3 °F 60% 29.85 in 10.0 mi WSW 18.4 mph 31.1 mph N/A   Overcast
5:15 PM 36.7 °F 26.6 °F 24.8 °F 62% 29.85 in 10.0 mi WSW 18.4 mph 27.6 mph N/A   Overcast
5:35 PM 36.7 °F 28.4 °F 24.8 °F 62% 29.86 in 10.0 mi WSW 12.7 mph 34.5 mph N/A   Overcast
5:36 PM 36.7 °F 26.9 °F 25.0 °F 63% 29.85 in 10.0 mi WSW 17.3 mph 27.6 mph N/A   Overcast
5:55 PM 36.5 °F 29.7 °F 25.3 °F 64% 29.85 in 10.0 mi WSW 9.2 mph 27.6 mph N/A   Overcast
6:15 PM 36.7 °F 28.0 °F 25.0 °F 63% 29.85 in 10.0 mi SW 13.8 mph 27.6 mph N/A   Overcast
6:35 PM 36.5 °F 25.4 °F 25.0 °F 63% 29.84 in 10.0 mi SW 21.9 mph 28.8 mph N/A   Overcast
6:36 PM 36.5 °F 26.0 °F 25.0 °F 63% 29.85 in 10.0 mi SW 19.6 mph 28.8 mph N/A   Overcast
6:55 PM 36.7 °F 26.3 °F 24.8 °F 62% 29.84 in 10.0 mi WSW 19.6 mph 29.9 mph N/A   Overcast
6:56 PM 36.7 °F 26.3 °F 24.8 °F 62% 29.84 in 10.0 mi WSW 19.6 mph 31.1 mph N/A   Overcast
7:15 PM 36.5 °F 26.3 °F 25.3 °F 64% 29.85 in 10.0 mi WSW 18.4 mph 29.9 mph N/A   Overcast
7:35 PM 36.1 °F 26.2 °F 25.0 °F 64% 29.85 in 10.0 mi WSW 17.3 mph 31.1 mph N/A   Overcast
7:55 PM 36.1 °F 25.9 °F 24.1 °F 62% 29.85 in 10.0 mi WSW 18.4 mph 40.3 mph N/A   Overcast
7:56 PM 36.1 °F 26.2 °F 23.9 °F 61% 29.85 in 10.0 mi WSW 17.3 mph 35.7 mph N/A   Overcast
8:15 PM 36.0 °F 24.7 °F 23.9 °F 62% 29.85 in 10.0 mi WSW 21.9 mph 33.4 mph N/A   Overcast
8:16 PM 36.0 °F 24.2 °F 23.9 °F 62% 29.85 in 10.0 mi WSW 24.2 mph 33.4 mph N/A   Overcast
8:35 PM 35.6 °F 25.9 °F 24.3 °F 63% 29.86 in 10.0 mi WSW 16.1 mph 42.6 mph N/A   Overcast
9:15 PM 34.9 °F 22.7 °F 24.1 °F 65% 29.85 in 10.0 mi WSW 24.2 mph 39.1 mph N/A   Mostly Cloudy
9:16 PM 34.9 °F 23.6 °F 23.9 °F 64% 29.86 in 10.0 mi WSW 20.7 mph 39.1 mph N/A   Mostly Cloudy
9:35 PM 34.7 °F 25.9 °F 24.1 °F 65% 29.86 in 10.0 mi West 12.7 mph 35.7 mph N/A   Overcast
9:36 PM 34.7 °F 24.7 °F 24.1 °F 65% 29.86 in 10.0 mi West 16.1 mph 35.7 mph N/A   Overcast
9:55 PM 34.0 °F 23.0 °F 25.3 °F 71% 29.86 in 10.0 mi West 18.4 mph 33.4 mph N/A   Overcast
10:15 PM 33.8 °F 22.5 °F 25.5 °F 72% 29.86 in 10.0 mi WSW 19.6 mph 31.1 mph N/A   Overcast
10:35 PM 33.8 °F 22.2 °F 25.0 °F 70% 29.85 in 10.0 mi WSW 20.7 mph 31.1 mph N/A   Overcast
10:36 PM 33.8 °F 22.5 °F 25.0 °F 70% 29.85 in 10.0 mi WSW 19.6 mph 31.1 mph N/A   Overcast
10:55 PM 34.2 °F 24.8 °F 25.2 °F 70% 29.85 in 10.0 mi WSW 13.8 mph 29.9 mph N/A   Overcast
11:15 PM 34.3 °F 23.5 °F 25.2 °F 69% 29.84 in 10.0 mi SW 18.4 mph 28.8 mph N/A   Overcast
11:35 PM 34.7 °F 25.5 °F 25.7 °F 70% 29.83 in 10.0 mi WSW 13.8 mph 27.6 mph N/A   Overcast
11:36 PM 34.7 °F 25.9 °F 25.7 °F 70% 29.84 in 10.0 mi WSW 12.7 mph 27.6 mph N/A   Overcast
11:55 PM 34.7 °F 24.7 °F 25.5 °F 69% 29.83 in 10.0 mi WSW 16.1 mph 26.5 mph N/A   Overcast
11:56 PM 34.7 °F 24.3 °F 25.5 °F 69% 29.83 in 10.0 mi WSW 17.3 mph 27.6 mph N/A   Overcast